Terminal Aerodrome Forecast
Issued by NWS Mt. Holly, NJ

Home | Current Version | Previous Version | Text Only | Print | Product List | Glossary On
Versions: 1 2 3 4 5 6 7 8 9 10 11 12 13 14 15 16 17 18 19 20 21 22 23 24 25 26 27 28 29 30 31 32 33 34 35
000
FTAK31 PANC 220521
TAFABE
TAF
PABE 220521Z 2206/2306 03014KT 2SM -SN BR BKN015 WS020/21030KT
      TEMPO 2206/2210 1SM -SN BR BKN008
     FM221200 36012KT 5SM -SHSN SCT010 BKN025
     FM221800 04010KT P6SM BKN035
     FM222200 06011KT P6SM -SHSN BKN025=

USA.gov is the U.S. government's official web portal to all federal, state and local government web resources and services.